createdAt,value
2023-05-06T00:02:25.917Z,9.3
2023-05-06T00:04:27.309Z,9.4
2023-05-06T00:06:28.656Z,9.4
2023-05-06T00:08:30.166Z,9.5
2023-05-06T00:10:31.571Z,9.5
2023-05-06T00:12:36.332Z,9.2
2023-05-06T00:14:37.748Z,9.1
2023-05-06T00:16:39.238Z,9.1
2023-05-06T00:17:41.692Z,9.2
2023-05-06T00:21:44.473Z,9
2023-05-06T00:23:45.932Z,8.9
2023-05-06T00:25:50.672Z,8.7
2023-05-06T00:35:57.941Z,8.6
2023-05-06T00:37:59.386Z,8.6
2023-05-06T00:40:04.123Z,8.7
2023-05-06T00:42:05.662Z,8.8
2023-05-06T00:44:07.005Z,8.5
2023-05-06T00:46:08.543Z,8.4
2023-05-06T00:48:09.933Z,8.4
2023-05-06T00:50:11.332Z,8.3
2023-05-06T00:52:12.789Z,8.3
2023-05-06T00:56:20.786Z,8.1
2023-05-06T00:58:20.419Z,8.1
2023-05-06T01:00:21.842Z,8.1
2023-05-06T01:02:26.335Z,8.1
2023-05-06T01:04:24.735Z,8.1
2023-05-06T01:08:30.900Z,8.1
2023-05-06T01:10:32.343Z,8.2
2023-05-06T01:12:33.823Z,8.2
2023-05-06T01:13:36.130Z,8.4
2023-05-06T01:15:37.653Z,8.4
2023-05-06T01:17:39.109Z,8.4
2023-05-06T01:19:40.487Z,8.1
2023-05-06T01:21:45.215Z,8
2023-05-06T01:23:46.672Z,8
2023-05-06T01:27:49.634Z,8.4
2023-05-06T01:31:52.505Z,8.4
2023-05-06T01:33:53.971Z,8.4
2023-05-06T01:35:58.747Z,8.4
2023-05-06T01:38:00.238Z,8.4
2023-05-06T01:40:01.665Z,8.4
2023-05-06T01:42:03.042Z,8.1
2023-05-06T01:44:04.540Z,8
2023-05-06T01:46:06.007Z,8
2023-05-06T01:48:07.489Z,8
2023-05-06T01:52:13.593Z,8.2
2023-05-06T01:54:15.033Z,8.2
2023-05-06T01:56:16.497Z,8.2
2023-05-06T01:58:17.939Z,8.3
2023-05-06T02:00:19.370Z,8.4
2023-05-06T02:02:20.849Z,8.5
2023-05-06T02:04:25.563Z,8.1
2023-05-06T02:06:27.022Z,8.1
2023-05-06T02:08:28.435Z,8.3
2023-05-06T02:09:30.820Z,8.3
2023-05-06T02:11:32.295Z,8.4
2023-05-06T02:13:33.688Z,8.5
2023-05-06T02:21:42.768Z,8.6
2023-05-06T02:27:47.163Z,8.4
2023-05-06T02:29:48.620Z,8.4
2023-05-06T02:31:53.398Z,8.4
2023-05-06T02:33:54.806Z,8.4
2023-05-06T02:35:56.211Z,8.3
2023-05-06T02:39:59.135Z,8.2
2023-05-06T02:42:00.589Z,8.2
2023-05-06T02:44:02.033Z,8.3
2023-05-06T02:46:06.817Z,8.2
2023-05-06T02:48:08.229Z,8.3
2023-05-06T02:50:09.671Z,8.3
2023-05-06T02:52:11.101Z,8.3
2023-05-06T02:56:13.999Z,7.9
2023-05-06T03:02:21.656Z,7.9
2023-05-06T03:06:45.950Z,8.4
2023-05-06T03:08:47.418Z,8.3
2023-05-06T03:10:48.856Z,8.2
2023-05-06T03:12:53.647Z,8.3
2023-05-06T03:16:56.553Z,8.4
2023-05-06T03:18:57.939Z,8.4
2023-05-06T03:20:59.412Z,8.2
2023-05-06T03:23:00.796Z,8
2023-05-06T03:25:02.267Z,8
2023-05-06T03:27:07.011Z,8.1
2023-05-06T03:29:08.458Z,8.2
2023-05-06T03:31:09.919Z,8.2
2023-05-06T03:35:12.776Z,8.2
2023-05-06T03:39:15.673Z,8.2
2023-05-06T03:41:20.367Z,8.2
2023-05-06T03:57:35.215Z,8.1
2023-05-06T03:59:36.688Z,8.1
2023-05-06T04:00:39.015Z,8.1
2023-05-06T04:04:41.930Z,8
2023-05-06T04:08:48.087Z,7.8
2023-05-06T04:12:51.000Z,7.8
2023-05-06T04:14:52.375Z,7.8
2023-05-06T04:16:53.849Z,7.8
2023-05-06T04:18:55.295Z,7.8
2023-05-06T04:20:56.723Z,7.8
2023-05-06T04:23:01.467Z,7.8
2023-05-06T04:25:02.899Z,7.8
2023-05-06T04:27:04.293Z,7.9
2023-05-06T04:29:05.750Z,7.9
2023-05-06T04:31:07.188Z,8
2023-05-06T04:33:08.654Z,8.1
2023-05-06T04:35:10.385Z,8.2
2023-05-06T04:37:14.901Z,8.2
2023-05-06T04:39:16.331Z,8.2
2023-05-06T04:45:20.697Z,8.6
2023-05-06T04:47:22.144Z,8.5
2023-05-06T04:49:23.507Z,8.5
2023-05-06T04:51:29.799Z,8.7
2023-05-06T04:53:31.292Z,8.7
2023-05-06T04:55:32.812Z,8.9
2023-05-06T04:56:35.180Z,8.9
2023-05-06T04:58:36.632Z,8.9
2023-05-06T05:00:38.155Z,8.9
2023-05-06T05:02:39.645Z,8.9
2023-05-06T05:04:44.317Z,9.3
2023-05-06T05:06:45.786Z,9.4
2023-05-06T05:08:47.192Z,9.4
2023-05-06T05:14:51.568Z,10
2023-05-06T05:20:59.184Z,10.9
2023-05-06T05:27:03.513Z,10.8
2023-05-06T05:29:04.952Z,10.8
2023-05-06T05:31:07.923Z,10.9
2023-05-06T05:33:11.247Z,11.7
2023-05-06T05:37:14.007Z,12.5
2023-05-06T05:39:15.477Z,12.9
2023-05-06T05:41:17.662Z,13
2023-05-06T05:43:18.337Z,13.1
2023-05-06T05:45:19.784Z,13
2023-05-06T05:47:24.553Z,13
2023-05-06T05:49:25.935Z,13.1
2023-05-06T05:51:27.416Z,13.2
2023-05-06T05:52:29.788Z,13.3
2023-05-06T05:54:31.223Z,13.3
2023-05-06T05:56:32.680Z,13.3
2023-05-06T05:58:34.123Z,13.6
2023-05-06T06:02:40.359Z,14.2
2023-05-06T06:04:41.828Z,14.6
2023-05-06T06:06:43.196Z,14.7
2023-05-06T06:08:44.654Z,15.2
2023-05-06T06:16:53.819Z,17
2023-05-06T06:20:56.645Z,18.3
2023-05-06T06:22:58.099Z,17.6
2023-05-06T06:24:59.551Z,17.3
2023-05-06T06:27:00.993Z,17.4
2023-05-06T06:29:05.709Z,17.8
2023-05-06T06:31:07.192Z,17.9
2023-05-06T06:33:08.630Z,18.6
2023-05-06T06:37:11.492Z,19.7
2023-05-06T06:39:12.949Z,19.3
2023-05-06T06:41:14.349Z,19.1
2023-05-06T06:43:19.120Z,18.9
2023-05-06T06:45:20.530Z,18.9
2023-05-06T06:47:21.954Z,18.6
2023-05-06T06:49:44.997Z,19.6
2023-05-06T06:51:46.404Z,19.2
2023-05-06T06:53:47.810Z,19.1
2023-05-06T06:55:52.542Z,19.2
2023-05-06T07:01:56.792Z,19.3
2023-05-06T07:03:58.231Z,19.4
2023-05-06T07:12:07.182Z,16.6
2023-05-06T07:14:08.569Z,16
2023-05-06T07:16:09.947Z,15.7
2023-05-06T07:22:14.218Z,15.7
2023-05-06T07:24:18.908Z,16
2023-05-06T07:26:20.304Z,16.1
2023-05-06T07:28:21.726Z,16.2
2023-05-06T07:30:23.517Z,16.3
2023-05-06T07:38:32.018Z,16.9
2023-05-06T07:40:33.398Z,16.9
2023-05-06T07:43:37.113Z,16.6
2023-05-06T07:47:40.067Z,16.2
2023-05-06T07:49:41.271Z,16.3
2023-05-06T07:51:46.028Z,16.5
2023-05-06T07:53:47.375Z,16.5
2023-05-06T07:57:50.205Z,16.6
2023-05-06T07:59:51.583Z,16.7
2023-05-06T08:01:53.003Z,16.7
2023-05-06T08:08:00.502Z,17
2023-05-06T08:10:01.960Z,16.9
2023-05-06T08:14:04.709Z,16.9
2023-05-06T08:16:06.157Z,17
2023-05-06T08:20:12.157Z,17.5
2023-05-06T08:22:13.559Z,17.9
2023-05-06T08:24:14.991Z,17.8
2023-05-06T08:28:17.758Z,18.1
2023-05-06T08:30:19.145Z,18
2023-05-06T08:32:20.536Z,18
2023-05-06T08:39:29.935Z,18.2
2023-05-06T08:43:32.610Z,17.7
2023-05-06T08:45:34.011Z,17.8
2023-05-06T08:49:39.862Z,17.7
2023-05-06T08:53:42.490Z,17.7
2023-05-06T08:57:45.150Z,18.5
2023-05-06T08:59:46.430Z,18.8
2023-05-06T09:01:51.127Z,18.4
2023-05-06T09:03:52.523Z,18.4
2023-05-06T09:05:53.680Z,18.1
2023-05-06T09:07:55.026Z,18.2
2023-05-06T09:09:56.316Z,18.3
2023-05-06T09:11:57.871Z,17.9
2023-05-06T09:13:58.956Z,17.9
2023-05-06T09:16:03.566Z,17.9
2023-05-06T09:18:04.877Z,18.1
2023-05-06T09:26:10.241Z,18
2023-05-06T09:28:11.531Z,17.9
2023-05-06T09:35:20.927Z,19.1
2023-05-06T09:37:22.283Z,19.3
2023-05-06T09:39:23.700Z,19.2
2023-05-06T09:41:25.051Z,19
2023-05-06T09:43:29.637Z,19.1
2023-05-06T09:45:30.905Z,19.5
2023-05-06T09:47:32.327Z,20
2023-05-06T09:49:33.613Z,20.1
2023-05-06T09:51:34.972Z,21.3
2023-05-06T09:53:36.314Z,21.6
2023-05-06T09:57:42.214Z,20.4
2023-05-06T10:03:46.345Z,22
2023-05-06T10:09:50.029Z,21.8
2023-05-06T10:11:54.639Z,21.5
2023-05-06T10:13:55.884Z,22
2023-05-06T10:15:57.256Z,22.6
2023-05-06T10:17:58.471Z,21.8
2023-05-06T10:19:59.678Z,21.5
2023-05-06T10:22:00.904Z,20.9
2023-05-06T10:24:02.091Z,21.1
2023-05-06T10:26:06.566Z,21.2
2023-05-06T10:30:09.028Z,21.5
2023-05-06T10:38:39.976Z,20.3
2023-05-06T10:46:44.974Z,21.3
2023-05-06T10:48:46.181Z,22.2
2023-05-06T10:50:47.412Z,21.6
2023-05-06T10:56:54.407Z,21.2
2023-05-06T10:58:55.584Z,20.4
2023-05-06T11:07:03.663Z,21.4
2023-05-06T11:09:04.971Z,21
2023-05-06T11:11:06.178Z,21.4
2023-05-06T11:13:07.378Z,21.8
2023-05-06T11:19:11.011Z,21.9
2023-05-06T11:21:15.499Z,21.5
2023-05-06T11:23:16.794Z,21.2
2023-05-06T11:25:18.007Z,20.5
2023-05-06T11:26:20.229Z,20.4
2023-05-06T11:42:33.501Z,20.2
2023-05-06T11:44:34.738Z,20.3
2023-05-06T11:48:40.391Z,20.7
2023-05-06T11:58:46.699Z,20.7
2023-05-06T12:00:50.943Z,20.8
2023-05-06T12:08:56.068Z,20.7
2023-05-06T12:10:57.308Z,20.6
2023-05-06T12:12:58.579Z,20.7
2023-05-06T12:14:59.864Z,21.1
2023-05-06T12:17:04.435Z,21.7
2023-05-06T12:19:05.602Z,22.1
2023-05-06T12:21:06.849Z,22.7
2023-05-06T12:38:22.252Z,21.4
2023-05-06T12:40:23.528Z,21.7
2023-05-06T12:46:30.665Z,24
2023-05-06T12:50:32.895Z,22.8
2023-05-06T12:52:34.080Z,22.7
2023-05-06T12:54:35.289Z,23.2
2023-05-06T12:56:36.490Z,22.9
2023-05-06T12:58:40.878Z,22.5
2023-05-06T13:00:42.186Z,23
2023-05-06T13:02:43.334Z,23.2
2023-05-06T13:04:44.523Z,23
2023-05-06T13:06:45.680Z,23.6
2023-05-06T13:08:46.834Z,23.7
2023-05-06T13:10:48.015Z,24.2
2023-05-06T13:12:52.525Z,24
2023-05-06T13:14:53.601Z,23.8
2023-05-06T13:16:54.833Z,24.4
2023-05-06T13:24:00.526Z,23.5
2023-05-06T13:26:05.820Z,24.4
2023-05-06T13:28:06.056Z,24.8
2023-05-06T13:30:07.240Z,24.2
2023-05-06T13:32:09.034Z,24
2023-05-06T13:36:10.699Z,22.6
2023-05-06T13:38:11.852Z,23.4
2023-05-06T13:44:18.603Z,24.9
2023-05-06T13:46:19.751Z,23.2
2023-05-06T13:52:23.226Z,23.3
2023-05-06T13:54:27.594Z,23
2023-05-06T13:58:29.928Z,22.9
2023-05-06T14:00:31.086Z,22
2023-05-06T14:04:33.482Z,21.9
2023-05-06T14:06:34.634Z,21.9
2023-05-06T14:08:39.049Z,21.9
2023-05-06T14:10:40.217Z,21.9
2023-05-06T14:12:41.419Z,21.6
2023-05-06T14:15:01.620Z,21.4
2023-05-06T14:17:02.793Z,21.5
2023-05-06T14:19:03.995Z,21.7
2023-05-06T14:21:08.450Z,21.4
2023-05-06T14:23:09.662Z,21.3
2023-05-06T14:27:12.090Z,21.6
2023-05-06T14:29:13.229Z,21.7
2023-05-06T14:31:14.471Z,21.8
2023-05-06T14:33:15.642Z,21.6
2023-05-06T14:35:20.173Z,21.3
2023-05-06T14:37:21.378Z,21.4
2023-05-06T14:39:22.578Z,21.7
2023-05-06T14:45:26.304Z,22.3
2023-05-06T14:51:33.124Z,23.1
2023-05-06T14:55:35.524Z,22.2
2023-05-06T14:57:36.756Z,22.3
2023-05-06T14:59:37.983Z,22.2
2023-05-06T15:01:39.305Z,22
2023-05-06T15:05:44.913Z,21.9
2023-05-06T15:08:48.284Z,21.6
2023-05-06T15:23:00.690Z,21.1
2023-05-06T15:27:03.108Z,20.7
2023-05-06T15:31:08.776Z,20.6
2023-05-06T15:33:10.153Z,20.5
2023-05-06T15:35:11.545Z,20.5
2023-05-06T15:37:12.582Z,20.4
2023-05-06T15:39:13.826Z,20.5
2023-05-06T15:45:20.856Z,20.1
2023-05-06T15:47:22.067Z,20
2023-05-06T15:49:46.674Z,20
2023-05-06T15:51:24.578Z,19.9
2023-05-06T15:53:25.851Z,19.9
2023-05-06T15:59:33.771Z,19.7
2023-05-06T16:02:04.748Z,19.6
2023-05-06T16:03:36.426Z,19.6
2023-05-06T16:04:38.801Z,19.6
2023-05-06T16:06:39.830Z,19.6
2023-05-06T16:10:42.525Z,19.6
2023-05-06T16:12:47.073Z,19.8
2023-05-06T16:14:48.380Z,19.7
2023-05-06T16:16:49.644Z,19.8
2023-05-06T16:18:50.905Z,19.7
2023-05-06T16:24:54.715Z,19.6
2023-05-06T16:29:02.052Z,19.8
2023-05-06T16:31:03.443Z,19.8
2023-05-06T16:33:04.870Z,20
2023-05-06T16:35:06.017Z,20.1
2023-05-06T16:39:08.699Z,20.1
2023-05-06T16:41:13.183Z,20.2
2023-05-06T16:43:14.470Z,20.2
2023-05-06T16:51:19.894Z,20
2023-05-06T17:00:30.647Z,20
2023-05-06T17:06:34.648Z,20
2023-05-06T17:08:39.245Z,19.9
2023-05-06T17:10:40.538Z,19.9
2023-05-06T17:18:45.612Z,18.2
2023-05-06T17:24:52.985Z,17.9
2023-05-06T17:26:54.234Z,17.8
2023-05-06T17:30:57.085Z,17.5
2023-05-06T17:32:58.537Z,17.4
2023-05-06T17:34:59.721Z,17.4
2023-05-06T17:37:04.306Z,17.3
2023-05-06T17:41:07.080Z,17.2
2023-05-06T17:47:11.168Z,17.1
2023-05-06T17:49:12.589Z,17
2023-05-06T17:51:17.330Z,17
2023-05-06T17:53:18.714Z,17
2023-05-06T17:55:20.243Z,17
2023-05-06T17:59:50.142Z,16.9
2023-05-06T18:03:56.331Z,16.9
2023-05-06T18:05:57.625Z,16.9
2023-05-06T18:07:59.074Z,16.8
2023-05-06T18:18:09.393Z,17
2023-05-06T18:20:10.735Z,16.8
2023-05-06T18:22:12.138Z,16.1
2023-05-06T18:24:16.442Z,14.7
2023-05-06T18:26:21.422Z,14.3
2023-05-06T18:28:16.373Z,14.2
2023-05-06T18:30:17.791Z,14.1
2023-05-06T18:34:23.986Z,14.2
2023-05-06T18:36:25.426Z,14.2
2023-05-06T18:40:28.281Z,14.2
2023-05-06T18:44:31.174Z,14.2
2023-05-06T18:46:35.854Z,14.1
2023-05-06T18:51:41.096Z,14
2023-05-06T18:53:42.551Z,14
2023-05-06T18:55:44.003Z,13.9
2023-05-06T18:57:45.419Z,13.9
2023-05-06T18:59:50.162Z,13.9
2023-05-06T19:01:51.646Z,13.9
2023-05-06T19:03:53.098Z,13.9
2023-05-06T19:05:54.502Z,13.9
2023-05-06T19:07:55.942Z,13.9
2023-05-06T19:09:57.352Z,13.9
2023-05-06T19:11:58.820Z,13.8
2023-05-06T19:20:07.860Z,13.9
2023-05-06T19:22:09.298Z,13.9
2023-05-06T19:26:12.188Z,13.8
2023-05-06T19:30:18.376Z,13.9
2023-05-06T19:34:21.275Z,13.9
2023-05-06T19:36:22.689Z,13.8
2023-05-06T19:38:24.147Z,13.8
2023-05-06T19:40:25.605Z,13.8
2023-05-06T19:44:31.766Z,13.7
2023-05-06T19:46:33.284Z,13.7
2023-05-06T19:47:35.649Z,13.8
2023-05-06T19:49:37.015Z,13.8
2023-05-06T19:51:38.494Z,13.8
2023-05-06T19:53:39.928Z,13.8
2023-05-06T19:57:46.119Z,13.8
2023-05-06T20:03:50.525Z,13.6
2023-05-06T20:05:51.832Z,13.7
2023-05-06T20:07:53.288Z,13.7
2023-05-06T20:09:58.012Z,13.6
2023-05-06T20:14:00.904Z,13.7
2023-05-06T20:16:02.364Z,13.7
2023-05-06T20:22:06.693Z,13.7
2023-05-06T20:24:11.388Z,13.6
2023-05-06T20:26:12.878Z,13.7
2023-05-06T20:28:14.291Z,13.7
2023-05-06T20:32:17.188Z,13.7
2023-05-06T20:36:20.059Z,13.7
2023-05-06T20:40:26.270Z,13.7
2023-05-06T20:42:27.688Z,13.6
2023-05-06T20:47:32.992Z,13.6
2023-05-06T20:49:34.390Z,13.6
2023-05-06T20:51:39.123Z,13.6
2023-05-06T20:53:40.539Z,13.5
2023-05-06T20:55:42.016Z,13.5
2023-05-06T20:59:44.888Z,13.5
2023-05-06T21:01:46.396Z,13.5
2023-05-06T21:03:47.811Z,13.5
2023-05-06T21:05:52.523Z,13.5
2023-05-06T21:07:53.991Z,13.5
2023-05-06T21:11:56.827Z,13.5
2023-05-06T21:13:58.299Z,13.5
2023-05-06T21:15:59.726Z,13.5
2023-05-06T21:20:06.345Z,13.5
2023-05-06T21:22:07.308Z,13.5
2023-05-06T21:26:10.204Z,13.5
2023-05-06T21:28:11.664Z,13.4
2023-05-06T21:32:14.524Z,13.4
2023-05-06T21:40:50.887Z,13.4
2023-05-06T21:42:52.327Z,13.4
2023-05-06T21:44:53.758Z,13.4
2023-05-06T21:46:58.523Z,13.4
2023-05-06T21:48:59.951Z,13.4
2023-05-06T21:53:02.823Z,13.3
2023-05-06T21:57:05.721Z,13.3
2023-05-06T22:01:11.856Z,13.3
2023-05-06T22:03:13.686Z,13.4
2023-05-06T22:07:16.197Z,13.4
2023-05-06T22:09:17.591Z,13.3
2023-05-06T22:11:19.048Z,13.3
2023-05-06T22:13:20.762Z,13.3
2023-05-06T22:15:25.200Z,13.3
2023-05-06T22:17:26.665Z,13.2
2023-05-06T22:19:29.666Z,13.2
2023-05-06T22:21:31.019Z,13.3
2023-05-06T22:29:40.089Z,13.2
2023-05-06T22:33:42.926Z,13.3
2023-05-06T22:34:45.358Z,13.2
2023-05-06T22:38:48.186Z,13.3
2023-05-06T22:40:49.629Z,13.3
2023-05-06T22:42:54.397Z,13.3
2023-05-06T22:44:55.799Z,13.3
2023-05-06T22:46:57.270Z,13.3
2023-05-06T22:48:58.708Z,13.3
2023-05-06T22:51:00.132Z,13.2
2023-05-06T22:53:10.383Z,13.2
2023-05-06T22:55:03.063Z,13.3
2023-05-06T22:57:08.197Z,13.3
2023-05-06T22:59:09.573Z,13.3
2023-05-06T23:01:11.048Z,13.2
2023-05-06T23:03:12.438Z,13.2
2023-05-06T23:07:15.313Z,13.2
2023-05-06T23:09:16.762Z,13.2
2023-05-06T23:11:21.509Z,13.2
2023-05-06T23:13:22.968Z,13.2
2023-05-06T23:15:24.404Z,13.3
2023-05-06T23:17:25.816Z,13.2
2023-05-06T23:23:30.139Z,13.2
2023-05-06T23:27:36.321Z,13.3
2023-05-06T23:29:37.746Z,13.2
2023-05-06T23:30:40.124Z,13.2
2023-05-06T23:34:42.987Z,13.1
2023-05-06T23:36:44.439Z,13.1
2023-05-06T23:38:49.155Z,13.1
2023-05-06T23:42:52.015Z,13.1
2023-05-06T23:44:53.483Z,13.1
2023-05-06T23:46:54.946Z,13.2
2023-05-06T23:48:56.332Z,13.1
2023-05-06T23:53:02.551Z,13.2
2023-05-06T23:55:03.956Z,13.1
2023-05-06T23:59:06.847Z,13.1
